createdAt,value
2023-03-22T00:01:37.854Z,68194.25
2023-03-22T00:04:05.446Z,68195.19
2023-03-22T00:06:32.879Z,68197.84
2023-03-22T00:09:01.568Z,68190.09
2023-03-22T00:11:29.172Z,68198.94
2023-03-22T00:13:59.000Z,68193.50
2023-03-22T00:16:26.767Z,68191.03
2023-03-22T00:18:54.182Z,68187.06
2023-03-22T00:21:21.584Z,68183.31
2023-03-22T00:23:49.105Z,68191.22
2023-03-22T00:26:17.632Z,68188.38
2023-03-22T00:28:45.155Z,68196.31
2023-03-22T00:31:12.751Z,68198.41
2023-03-22T00:33:40.930Z,68201.03
2023-03-22T00:36:12.442Z,68217.09
2023-03-22T00:38:44.218Z,68235.41
2023-03-22T00:41:18.019Z,68218.03
2023-03-22T00:43:47.457Z,68205.75
2023-03-22T00:46:16.501Z,68195.19
2023-03-22T00:48:44.536Z,68190.84
2023-03-22T00:51:13.419Z,68177.44
2023-03-22T00:53:43.047Z,68175.00
2023-03-22T00:56:16.410Z,68164.44
2023-03-22T00:58:49.002Z,68150.66
2023-03-22T01:01:16.425Z,68149.31
2023-03-22T01:03:44.259Z,68161.78
2023-03-22T01:06:16.076Z,68148.19
2023-03-22T01:08:43.825Z,68163.47
2023-03-22T01:11:11.238Z,68159.31
2023-03-22T01:13:39.532Z,68143.66
2023-03-22T01:16:08.395Z,68151.03
2023-03-22T01:18:36.783Z,68146.31
2023-03-22T01:21:04.649Z,68145.75
2023-03-22T01:23:32.216Z,68125.56
2023-03-22T01:26:00.259Z,68131.00
2023-03-22T01:28:29.032Z,68122.16
2023-03-22T01:30:57.173Z,68142.16
2023-03-22T01:33:24.686Z,68126.50
2023-03-22T01:35:52.748Z,68127.25
2023-03-22T01:38:20.594Z,68129.91
2023-03-22T01:40:53.824Z,68118.75
2023-03-22T01:43:21.906Z,68110.81
2023-03-22T01:45:56.418Z,68101.56
2023-03-22T01:48:35.670Z,68108.00
2023-03-22T01:51:16.788Z,68110.25
2023-03-22T01:54:03.140Z,68111.38
2023-03-22T01:56:36.005Z,68118.75
2023-03-22T01:59:05.127Z,68106.84
2023-03-22T02:01:49.706Z,68090.81
2023-03-22T02:04:20.939Z,68086.28
2023-03-22T02:06:50.069Z,68077.81
2023-03-22T02:09:22.192Z,68064.03
2023-03-22T02:12:23.223Z,68060.84
2023-03-22T02:15:07.022Z,68055.00
2023-03-22T02:18:29.986Z,68080.63
2023-03-22T02:21:18.033Z,68085.53
2023-03-22T02:24:10.409Z,68071.22
2023-03-22T02:27:06.600Z,68072.91
2023-03-22T02:29:45.220Z,68060.47
2023-03-22T02:32:19.222Z,68065.34
2023-03-22T02:35:01.888Z,68064.03
2023-03-22T02:37:48.139Z,68055.38
2023-03-22T02:40:17.696Z,68058.75
2023-03-22T02:42:54.687Z,68035.56
2023-03-22T02:45:41.331Z,68033.69
2023-03-22T02:48:30.757Z,68057.25
2023-03-22T02:51:05.818Z,68036.50
2023-03-22T02:53:42.402Z,68037.44
2023-03-22T02:56:16.131Z,68025.41
2023-03-22T02:58:57.476Z,68032.00
2023-03-22T03:01:31.409Z,68026.69
2023-03-22T03:04:04.869Z,68008.25
2023-03-22T03:06:46.102Z,68001.06
2023-03-22T03:09:18.236Z,67994.09
2023-03-22T03:11:49.288Z,67985.44
2023-03-22T03:14:24.425Z,67979.97
2023-03-22T03:17:19.983Z,67978.81
2023-03-22T03:19:56.524Z,67979.97
2023-03-22T03:22:34.010Z,67966.59
2023-03-22T03:25:11.895Z,67964.69
2023-03-22T03:28:10.235Z,67958.09
2023-03-22T03:31:00.600Z,67962.22
2023-03-22T03:33:29.509Z,67950.00
2023-03-22T03:36:08.160Z,67953.19
2023-03-22T03:38:40.434Z,67952.28
2023-03-22T03:41:13.833Z,67955.84
2023-03-22T03:43:44.032Z,67954.16
2023-03-22T03:46:12.155Z,67962.59
2023-03-22T03:48:43.235Z,67949.25
2023-03-22T03:51:11.542Z,67943.22
2023-03-22T03:53:39.182Z,67950.97
2023-03-22T03:56:07.214Z,67954.13
2023-03-22T03:58:39.664Z,67944.72
2023-03-22T04:01:07.733Z,67960.94
2023-03-22T04:04:00.515Z,67961.28
2023-03-22T04:06:40.326Z,67954.91
2023-03-22T04:09:12.794Z,67958.66
2023-03-22T04:11:45.287Z,67972.59
2023-03-22T04:14:14.778Z,67976.19
2023-03-22T04:16:42.155Z,67972.22
2023-03-22T04:19:13.529Z,67971.69
2023-03-22T04:21:41.421Z,67977.34
2023-03-22T04:24:10.563Z,67976.19
2023-03-22T04:26:41.747Z,67976.19
2023-03-22T04:29:36.680Z,67974.13
2023-03-22T04:32:25.370Z,67995.78
2023-03-22T04:34:54.936Z,67986.56
2023-03-22T04:37:24.689Z,68007.31
2023-03-22T04:40:07.869Z,68005.41
2023-03-22T04:42:40.648Z,68010.88
2023-03-22T04:45:15.731Z,68010.28
2023-03-22T04:47:47.688Z,68005.22
2023-03-22T04:50:16.444Z,68030.84
2023-03-22T04:52:50.878Z,68021.44
2023-03-22T04:55:21.536Z,68020.88
2023-03-22T04:57:49.516Z,68009.94
2023-03-22T05:00:19.127Z,68008.97
2023-03-22T05:02:48.600Z,68014.47
2023-03-22T05:05:30.277Z,68015.38
2023-03-22T05:08:01.142Z,68009.94
2023-03-22T05:10:29.426Z,68007.09
2023-03-22T05:12:58.902Z,68002.59
2023-03-22T05:15:32.744Z,68004.84
2023-03-22T05:18:02.360Z,68019.34
2023-03-22T05:20:29.756Z,68012.00
2023-03-22T05:23:10.270Z,68009.94
2023-03-22T05:25:38.999Z,67998.81
2023-03-22T05:28:06.580Z,68012.56
2023-03-22T05:30:44.066Z,68017.28
2023-03-22T05:33:23.560Z,68031.06
2023-03-22T05:35:54.738Z,68025.41
2023-03-22T05:38:23.349Z,68051.06
2023-03-22T05:40:54.141Z,68055.94
2023-03-22T05:43:22.484Z,68062.56
2023-03-22T05:45:51.395Z,68068.75
2023-03-22T05:48:47.963Z,68077.44
2023-03-22T05:51:18.080Z,68086.84
2023-03-22T05:53:49.156Z,68095.91
2023-03-22T05:56:24.770Z,68095.34
2023-03-22T05:59:00.986Z,68101.56
2023-03-22T06:01:28.557Z,68101.94
2023-03-22T06:04:25.417Z,68093.28
2023-03-22T06:07:06.519Z,68099.50
2023-03-22T06:10:04.878Z,68106.47
2023-03-22T06:12:33.508Z,68118.94
2023-03-22T06:15:11.561Z,68121.59
2023-03-22T06:17:48.759Z,68125.34
2023-03-22T06:20:21.432Z,68121.59
2023-03-22T06:22:54.461Z,68115.72
2023-03-22T06:25:21.931Z,68110.81
2023-03-22T06:27:50.376Z,68115.34
2023-03-22T06:30:19.340Z,68121.59
2023-03-22T06:33:07.071Z,68128.38
2023-03-22T06:35:38.527Z,68129.72
2023-03-22T06:38:08.146Z,68128.75
2023-03-22T06:40:37.791Z,68128.38
2023-03-22T06:43:07.227Z,68154.44
2023-03-22T06:45:37.284Z,68148.38
2023-03-22T06:48:05.727Z,68150.63
2023-03-22T06:50:57.167Z,68142.34
2023-03-22T06:53:36.474Z,68154.22
2023-03-22T06:56:05.739Z,68166.69
2023-03-22T06:58:43.078Z,68177.06
2023-03-22T07:01:10.848Z,68182.53
2023-03-22T07:03:38.425Z,68186.69
2023-03-22T07:06:14.049Z,68220.13
2023-03-22T07:08:44.651Z,68228.81
2023-03-22T07:11:15.656Z,68232.94
2023-03-22T07:13:47.082Z,68234.66
2023-03-22T07:16:20.135Z,68236.91
2023-03-22T07:18:53.969Z,68235.41
2023-03-22T07:21:21.504Z,68248.41
2023-03-22T07:23:55.528Z,68255.03
2023-03-22T07:26:27.793Z,68264.84
2023-03-22T07:28:58.175Z,68289.59
2023-03-22T07:31:29.829Z,68322.28
2023-03-22T07:34:05.942Z,68361.22
2023-03-22T07:36:41.779Z,68365.19
2023-03-22T07:39:11.724Z,68367.47
2023-03-22T07:41:44.398Z,68386.75
2023-03-22T07:44:40.601Z,68416.41
2023-03-22T07:47:14.210Z,68422.84
2023-03-22T07:49:49.429Z,68434.19
2023-03-22T07:52:21.287Z,68468.78
2023-03-22T07:54:49.352Z,68470.69
2023-03-22T07:57:16.922Z,68475.97
2023-03-22T07:59:57.454Z,68501.53
2023-03-22T08:02:33.580Z,68528.19
2023-03-22T08:05:06.162Z,68614.69
2023-03-22T08:07:41.522Z,68634.22
2023-03-22T08:10:11.354Z,68616.03
2023-03-22T08:12:38.934Z,68603.34
2023-03-22T08:15:23.578Z,68585.34
2023-03-22T08:17:51.572Z,68575.13
2023-03-22T08:20:29.279Z,68568.34
2023-03-22T08:23:01.326Z,68567.97
2023-03-22T08:25:52.398Z,68532.00
2023-03-22T08:28:20.507Z,68565.31
2023-03-22T08:30:49.446Z,68560.00
2023-03-22T08:33:17.046Z,68588.38
2023-03-22T08:35:46.479Z,68601.28
2023-03-22T08:38:14.794Z,68592.19
2023-03-22T08:40:48.008Z,68564.72
2023-03-22T08:43:19.947Z,68538.78
2023-03-22T08:45:47.895Z,68559.75
2023-03-22T08:48:17.490Z,68620.56
2023-03-22T08:51:01.254Z,68569.47
2023-03-22T08:53:37.907Z,68586.69
2023-03-22T08:56:28.999Z,68552.06
2023-03-22T08:59:09.928Z,68536.34
2023-03-22T09:02:00.147Z,68544.09
2023-03-22T09:04:27.749Z,68563.22
2023-03-22T09:06:56.349Z,68541.81
2023-03-22T09:09:23.950Z,68544.84
2023-03-22T09:11:53.775Z,68586.09
2023-03-22T09:14:21.840Z,68612.59
2023-03-22T09:16:50.029Z,68642.56
2023-03-22T09:19:17.747Z,68655.44
2023-03-22T09:21:46.005Z,68634.00
2023-03-22T09:24:24.068Z,68636.47
2023-03-22T09:26:54.607Z,68681.38
2023-03-22T09:29:22.355Z,68725.13
2023-03-22T09:31:49.826Z,68749.56
2023-03-22T09:34:22.644Z,68761.69
2023-03-22T09:36:50.060Z,68773.44
2023-03-22T09:39:20.845Z,68759.72
2023-03-22T09:41:57.663Z,68804.38
2023-03-22T09:44:34.244Z,68848.53
2023-03-22T09:47:05.449Z,68886.28
2023-03-22T09:49:52.548Z,68848.44
2023-03-22T09:52:21.781Z,68862.66
2023-03-22T09:54:52.239Z,68873.75
2023-03-22T09:57:37.140Z,68895.00
2023-03-22T10:00:48.123Z,68969.75
2023-03-22T10:03:53.464Z,68993.34
2023-03-22T10:06:23.037Z,69038.69
2023-03-22T10:09:07.046Z,69058.06
2023-03-22T10:11:57.556Z,69038.13
2023-03-22T10:14:36.063Z,69047.59
2023-03-22T10:17:10.669Z,69049.13
2023-03-22T10:19:44.112Z,68967.50
2023-03-22T10:22:16.665Z,68874.69
2023-03-22T10:24:48.908Z,68849.09
2023-03-22T10:27:19.869Z,68844.56
2023-03-22T10:30:18.789Z,68800.97
2023-03-22T10:33:02.814Z,68844.00
2023-03-22T10:35:32.000Z,68800.19
2023-03-22T10:38:04.737Z,68758.84
2023-03-22T10:40:36.614Z,68721.34
2023-03-22T10:43:14.664Z,68731.75
2023-03-22T10:45:43.334Z,68766.06
2023-03-22T10:48:24.182Z,68799.06
2023-03-22T10:50:55.547Z,68810.25
2023-03-22T10:53:48.394Z,68943.41
2023-03-22T10:56:21.073Z,68958.41
2023-03-22T10:58:55.567Z,68995.28
2023-03-22T11:01:30.023Z,68951.75
2023-03-22T11:04:13.756Z,68850.16
2023-03-22T11:06:54.874Z,68881.38
2023-03-22T11:09:24.849Z,69015.50
2023-03-22T11:12:00.435Z,69076.28
2023-03-22T11:14:28.019Z,69124.56
2023-03-22T11:16:58.545Z,69106.91
2023-03-22T11:19:40.484Z,69063.38
2023-03-22T11:22:27.527Z,69032.59
2023-03-22T11:24:56.953Z,69046.47
2023-03-22T11:27:37.156Z,69028.44
2023-03-22T11:30:28.954Z,68977.16
2023-03-22T11:33:17.411Z,69014.94
2023-03-22T11:35:47.720Z,69021.78
2023-03-22T11:38:30.425Z,69016.44
2023-03-22T11:41:04.904Z,69040.19
2023-03-22T11:43:48.570Z,69017.25
2023-03-22T11:46:21.450Z,69002.06
2023-03-22T11:48:52.137Z,68977.34
2023-03-22T11:51:29.938Z,68986.28
2023-03-22T11:54:02.398Z,68942.84
2023-03-22T11:56:30.594Z,68971.47
2023-03-22T11:59:09.178Z,68992.94
2023-03-22T12:01:49.353Z,68993.47
2023-03-22T12:04:22.957Z,68995.41
2023-03-22T12:06:55.513Z,69021.78
2023-03-22T12:09:32.885Z,69052.75
2023-03-22T12:12:03.894Z,69064.31
2023-03-22T12:14:49.036Z,69125.88
2023-03-22T12:17:35.553Z,69111.41
2023-03-22T12:20:23.004Z,69144.44
2023-03-22T12:22:54.693Z,69152.25
2023-03-22T12:25:29.360Z,69133.84
2023-03-22T12:28:02.365Z,69055.78
2023-03-22T12:30:33.967Z,69038.50
2023-03-22T12:33:13.678Z,69086.53
2023-03-22T12:35:45.646Z,69076.28
2023-03-22T12:38:40.795Z,69034.84
2023-03-22T12:41:15.693Z,69022.94
2023-03-22T12:44:06.019Z,69032.63
2023-03-22T12:46:51.732Z,69031.84
2023-03-22T12:49:47.350Z,69002.06
2023-03-22T12:52:21.769Z,68977.75
2023-03-22T12:54:51.190Z,69009.78
2023-03-22T12:57:19.253Z,68991.97
2023-03-22T12:59:53.492Z,69025.56
2023-03-22T13:02:33.229Z,69072.31
2023-03-22T13:05:05.091Z,69080.28
2023-03-22T13:07:38.650Z,69040.94
2023-03-22T13:10:31.494Z,69021.41
2023-03-22T13:13:31.633Z,69038.69
2023-03-22T13:16:08.604Z,69054.06
2023-03-22T13:18:36.493Z,69080.84
2023-03-22T13:21:17.916Z,69118.47
2023-03-22T13:23:57.818Z,69081.03
2023-03-22T13:26:48.311Z,68988.16
2023-03-22T13:29:25.456Z,68971.47
2023-03-22T13:32:02.320Z,68942.44
2023-03-22T13:34:44.365Z,68925.56
2023-03-22T13:37:30.514Z,68937.50
2023-03-22T13:40:02.550Z,68969.75
2023-03-22T13:42:39.565Z,68997.28
2023-03-22T13:45:32.462Z,68988.56
2023-03-22T13:48:05.478Z,68979.44
2023-03-22T13:50:34.597Z,68964.47
2023-03-22T13:53:21.588Z,68957.66
2023-03-22T13:55:49.428Z,68980.22
2023-03-22T13:58:36.504Z,68996.53
2023-03-22T14:01:08.026Z,68973.19
2023-03-22T14:03:43.503Z,68956.69
2023-03-22T14:06:20.698Z,68939.59
2023-03-22T14:08:53.615Z,68947.41
2023-03-22T14:11:30.009Z,68944.38
2023-03-22T14:14:04.266Z,68932.97
2023-03-22T14:16:42.942Z,68935.06
2023-03-22T14:19:18.931Z,68982.09
